Time;durP1;ratioP1;P1;durP2;ratioP2;P2;SDS_P1;SDS_P2;PMS_P1;PMS_P2;Temp;Humidity;BMP_temperature;BMP_pressure;BME280_temperature;BME280_humidity;BME280_pressure;Samples;Min_cycle;Max_cycle;Signal;HPM_P1;HPM_P2
2022/11/10 00:00:04;;;;;;;;;;;;;;;;;;;;;
2022/11/10 00:05:56;;;;;;;1.48;0.88;;;;;;;;;;5047401;28;20040;-58
2022/11/10 00:08:31;;;;;;;3.45;1.85;;;;;;;;;;5085683;28;20035;-58
2022/11/10 00:11:25;;;;;;;2.88;1.20;;;;;;;;;;5110329;28;20087;-58
2022/11/10 00:17:05;;;;;;;2.95;1.17;;;;;;;;;;5110220;28;20057;-58
2022/11/10 00:19:34;;;;;;;1.33;0.73;;;;;;;;;;5109834;28;20051;-58
2022/11/10 00:25:07;;;;;;;1.30;0.70;;;;;;;;;;5109758;28;20043;-58
2022/11/10 00:28:04;;;;;;;1.67;0.82;;;;;;;;;;5109800;28;20036;-59
2022/11/10 00:30:49;;;;;;;2.13;1.20;;;;;;;;;;5108598;28;20042;-58
2022/11/10 00:33:28;;;;;;;2.13;1.33;;;;;;;;;;5109548;28;20035;-58
2022/11/10 00:42:11;;;;;;;2.53;1.33;;;;;;;;;;5045793;28;20039;-58
2022/11/10 00:44:49;;;;;;;1.75;1.05;;;;;;;;;;5099707;28;20047;-58
2022/11/10 00:47:19;;;;;;;1.67;0.95;;;;;;;;;;5109630;28;20423;-58
2022/11/10 00:50:24;;;;;;;2.20;1.00;;;;;;;;;;5109108;28;20024;-58
2022/11/10 00:52:53;;;;;;;2.58;1.20;;;;;;;;;;5047333;28;20029;-58
2022/11/10 00:55:33;;;;;;;1.60;1.20;;;;;;;;;;5046768;28;20088;-58
2022/11/10 00:58:24;;;;;;;4.35;1.40;;;;;;;;;;5046870;28;20520;-58
2022/11/10 01:01:23;;;;;;;;;;;;;;;;;;;;;
2022/11/10 01:04:02;;;;;;;2.35;1.25;;;;;;;;;;5046914;28;20088;-58
2022/11/10 01:12:45;;;;;;;3.63;1.05;;;;;;;;;;5047395;28;20032;-58
2022/11/10 01:15:17;;;;;;;2.83;1.23;;;;;;;;;;5046988;28;20025;-58
2022/11/10 01:18:27;;;;;;;3.38;1.70;;;;;;;;;;5047422;28;20072;-58
2022/11/10 01:21:28;;;;;;;2.35;1.13;;;;;;;;;;5019544;28;20533;-58
2022/11/10 01:23:56;;;;;;;4.63;1.63;;;;;;;;;;5079691;28;20052;-58
2022/11/10 01:26:42;;;;;;;;;;;;;;;;;;;;;
2022/11/10 01:32:36;;;;;;;2.53;1.35;;;;;;;;;;5078238;28;20512;-58
2022/11/10 01:35:03;;;;;;;2.10;1.70;;;;;;;;;;5090469;28;20047;-58
2022/11/10 01:41:02;;;;;;;2.50;1.52;;;;;;;;;;5109469;28;20047;-58
2022/11/10 01:43:54;;;;;;;3.47;1.05;;;;;;;;;;5109369;28;20032;-58
2022/11/10 01:46:36;;;;;;;2.53;1.05;;;;;;;;;;5108866;28;20020;-58
2022/11/10 01:49:16;;;;;;;2.10;1.13;;;;;;;;;;5108733;28;20032;-58
2022/11/10 01:51:53;;;;;;;2.45;1.30;;;;;;;;;;5112506;28;20032;-58
2022/11/10 01:54:39;;;;;;;3.38;1.58;;;;;;;;;;5112262;28;20044;-58
2022/11/10 01:57:16;;;;;;;4.10;1.05;;;;;;;;;;5112455;28;20032;-58
2022/11/10 01:59:54;;;;;;;2.35;1.15;;;;;;;;;;5108950;28;20381;-58
2022/11/10 02:05:51;;;;;;;2.20;1.23;;;;;;;;;;5073535;28;20036;-58
2022/11/10 02:15:02;;;;;;;;;;;;;;;;;;;;;
2022/11/10 02:18:06;;;;;;;2.88;1.77;;;;;;;;;;5112305;28;20056;-58
2022/11/10 02:20:56;;;;;;;4.43;1.60;;;;;;;;;;5112267;28;20020;-58
2022/11/10 02:26:42;;;;;;;2.33;1.08;;;;;;;;;;5100582;28;20042;-58
2022/11/10 02:29:12;;;;;;;1.83;1.00;;;;;;;;;;5093653;28;20036;-58
2022/11/10 02:32:00;;;;;;;3.40;1.30;;;;;;;;;;5092502;28;20027;-58
2022/11/10 02:34:48;;;;;;;2.35;1.45;;;;;;;;;;5111804;28;20087;-58
2022/11/10 02:37:33;;;;;;;5.18;1.60;;;;;;;;;;5111923;28;20058;-58
2022/11/10 02:43:08;;;;;;;2.10;1.02;;;;;;;;;;5111961;28;20130;-58
2022/11/10 02:45:56;;;;;;;2.30;1.60;;;;;;;;;;5111871;28;20025;-58
2022/11/10 02:48:46;;;;;;;2.45;1.13;;;;;;;;;;5112073;28;20024;-58
2022/11/10 02:51:38;;;;;;;;;;;;;;;;;;;;;
2022/11/10 02:58:04;;;;;;;4.57;1.77;;;;;;;;;;5111392;28;20071;-58
2022/11/10 03:01:09;;;;;;;;;;;;;;;;;;;;;
2022/11/10 03:04:22;;;;;;;2.40;1.10;;;;;;;;;;5006893;28;20061;-58
2022/11/10 03:10:11;;;;;;;3.13;1.52;;;;;;;;;;5072194;28;20074;-58
2022/11/10 03:13:05;;;;;;;2.45;1.77;;;;;;;;;;5110936;28;20055;-58
2022/11/10 03:15:44;;;;;;;6.05;1.83;;;;;;;;;;5093033;28;20027;-58
2022/11/10 03:18:29;;;;;;;2.20;1.60;;;;;;;;;;5111188;28;20028;-58
2022/11/10 03:21:07;;;;;;;3.55;1.50;;;;;;;;;;5091349;28;20059;-58
2022/11/10 03:26:45;;;;;;;4.38;1.83;;;;;;;;;;5110846;28;20342;-58
2022/11/10 03:29:20;;;;;;;3.70;1.80;;;;;;;;;;5093119;28;20035;-58
2022/11/10 03:32:07;;;;;;;3.67;1.95;;;;;;;;;;5110812;28;20084;-58
2022/11/10 03:34:45;;;;;;;4.80;1.85;;;;;;;;;;5058009;28;20089;-58
2022/11/10 03:40:49;;;;;;;4.85;2.00;;;;;;;;;;5054603;28;20063;-59
2022/11/10 03:49:57;;;;;;;2.83;0.93;;;;;;;;;;5054401;28;20037;-58
2022/11/10 03:52:45;;;;;;;;;;;;;;;;;;;;;
2022/11/10 04:02:24;;;;;;;2.05;1.25;;;;;;;;;;5008716;28;20145;-56
2022/11/10 04:11:04;;;;;;;3.78;1.88;;;;;;;;;;5058686;28;20105;-58
2022/11/10 04:16:53;;;;;;;2.28;1.42;;;;;;;;;;5109812;28;20035;-58
2022/11/10 04:19:43;;;;;;;4.38;1.48;;;;;;;;;;5109623;28;20091;-58
2022/11/10 04:25:18;;;;;;;2.97;1.45;;;;;;;;;;5089304;28;20100;-58
2022/11/10 04:28:15;;;;;;;3.42;2.10;;;;;;;;;;5089249;28;20051;-58
2022/11/10 04:31:06;;;;;;;5.65;2.22;;;;;;;;;;5086311;28;20021;-58
2022/11/10 04:33:54;;;;;;;2.80;1.80;;;;;;;;;;5045618;28;20535;-58
2022/11/10 04:36:48;;;;;;;3.42;1.65;;;;;;;;;;5073665;28;20040;-58
2022/11/10 04:39:54;;;;;;;2.42;1.70;;;;;;;;;;5074963;28;20454;-58
2022/11/10 04:43:00;;;;;;;;;;;;;;;;;;;;;
2022/11/10 04:45:35;;;;;;;5.70;1.45;;;;;;;;;;5074136;28;20394;-58
2022/11/10 04:48:36;;;;;;;4.25;1.23;;;;;;;;;;5074478;28;20425;-58
2022/11/10 04:51:30;;;;;;;3.03;1.60;;;;;;;;;;4957176;28;20031;-58
2022/11/10 04:59:51;;;;;;;3.55;1.77;;;;;;;;;;4911662;29;20092;-58
2022/11/10 05:05:24;;;;;;;3.05;1.95;;;;;;;;;;4987394;28;20126;-58
2022/11/10 05:10:57;;;;;;;4.65;1.42;;;;;;;;;;5089274;28;20024;-58
2022/11/10 05:13:39;;;;;;;2.33;1.60;;;;;;;;;;5088973;28;20024;-58
2022/11/10 05:16:29;;;;;;;2.22;1.33;;;;;;;;;;5088946;28;20036;-58
2022/11/10 05:19:24;;;;;;;2.60;1.95;;;;;;;;;;5088906;28;20024;-57
2022/11/10 05:22:10;;;;;;;4.35;1.95;;;;;;;;;;5086096;28;20100;-58
2022/11/10 05:24:37;;;;;;;2.88;1.40;;;;;;;;;;5085721;28;20048;-59
2022/11/10 05:27:19;;;;;;;3.75;1.88;;;;;;;;;;5113145;28;20109;-58
2022/11/10 05:30:16;;;;;;;;;;;;;;;;;;;;;
2022/11/10 05:32:43;;;;;;;4.38;1.88;;;;;;;;;;5112727;28;20047;-58
2022/11/10 05:38:14;;;;;;;2.22;1.35;;;;;;;;;;5098487;28;20036;-59
2022/11/10 05:41:18;;;;;;;3.45;1.98;;;;;;;;;;5093863;28;20057;-59
2022/11/10 05:43:50;;;;;;;3.65;2.53;;;;;;;;;;5089672;28;20032;-59
2022/11/10 05:46:32;;;;;;;5.30;2.13;;;;;;;;;;5112228;28;20509;-59
2022/11/10 05:52:14;;;;;;;2.78;1.50;;;;;;;;;;5112621;28;20031;-58
2022/11/10 05:54:59;;;;;;;;;;;;;;;;;;;;;
2022/11/10 05:58:00;;;;;;;;;;;;;;;;;;;;;
2022/11/10 06:01:00;;;;;;;;;;;;;;;;;;;;;
2022/11/10 06:09:47;;;;;;;3.40;1.83;;;;;;;;;;5035116;28;20041;-56
2022/11/10 06:12:41;;;;;;;;;;;;;;;;;;;;;
2022/11/10 06:15:41;;;;;;;2.10;1.42;;;;;;;;;;5019536;28;20049;-57
2022/11/10 06:21:40;;;;;;;2.25;1.35;;;;;;;;;;5034789;28;20525;-59
2022/11/10 06:24:31;;;;;;;3.95;2.15;;;;;;;;;;5017892;28;20496;-57
2022/11/10 06:27:23;;;;;;;4.03;2.10;;;;;;;;;;5034943;28;20026;-57
2022/11/10 06:30:11;;;;;;;2.55;2.10;;;;;;;;;;5013148;28;20038;-57
2022/11/10 06:33:10;;;;;;;3.40;1.83;;;;;;;;;;5035114;28;20336;-58
2022/11/10 06:35:58;;;;;;;;;;;;;;;;;;;;;
2022/11/10 06:38:44;;;;;;;3.92;2.00;;;;;;;;;;5034637;28;20150;-57
2022/11/10 06:41:36;;;;;;;9.15;7.22;;;;;;;;;;5069020;28;20043;-56
2022/11/10 06:44:17;;;;;;;8.63;6.30;;;;;;;;;;5097855;28;20016;-57
2022/11/10 06:46:54;;;;;;;8.00;5.22;;;;;;;;;;5097753;28;20077;-57
2022/11/10 06:52:25;;;;;;;3.67;2.38;;;;;;;;;;5018864;28;20099;-57
2022/11/10 07:00:39;;;;;;;3.70;2.30;;;;;;;;;;5064999;28;20071;-57
2022/11/10 07:06:07;;;;;;;3.47;2.47;;;;;;;;;;5047488;28;20033;-58
2022/11/10 07:11:42;;;;;;;6.85;3.97;;;;;;;;;;5065164;28;20039;-58
2022/11/10 07:14:41;;;;;;;4.10;3.15;;;;;;;;;;5065587;28;20041;-58
2022/11/10 07:17:28;;;;;;;6.38;2.67;;;;;;;;;;5066957;28;20049;-58
2022/11/10 07:20:29;;;;;;;7.78;2.95;;;;;;;;;;5064760;28;20055;-58
2022/11/10 07:23:21;;;;;;;6.57;3.00;;;;;;;;;;5095714;28;20043;-58
2022/11/10 07:25:47;;;;;;;4.90;3.00;;;;;;;;;;5076208;28;20040;-58
2022/11/10 07:32:12;;;;;;;6.13;2.60;;;;;;;;;;4994071;28;20390;-58
2022/11/10 07:35:27;;;;;;;5.38;2.10;;;;;;;;;;4994724;28;20376;-57
2022/11/10 07:37:44;;;;;;;3.17;2.13;;;;;;;;;;4990182;28;20026;-58
2022/11/10 07:40:51;;;;;;;3.50;2.60;;;;;;;;;;4994712;28;20031;-58
2022/11/10 07:46:24;;;;;;;6.10;2.00;;;;;;;;;;4984696;28;20062;-58
2022/11/10 07:49:15;;;;;;;3.17;1.85;;;;;;;;;;4993712;28;20022;-58
2022/11/10 07:55:01;;;;;;;3.22;2.13;;;;;;;;;;5075804;28;20127;-57
2022/11/10 07:57:45;;;;;;;22.25;13.43;;;;;;;;;;5073892;28;20048;-58
2022/11/10 08:00:36;;;;;;;4.20;3.10;;;;;;;;;;5079357;28;20021;-58
2022/11/10 08:03:27;;;;;;;6.43;2.05;;;;;;;;;;5076490;28;20031;-58
2022/11/10 08:05:59;;;;;;;;;;;;;;;;;;5074906;28;20330;-58
2022/11/10 08:08:59;;;;;;;;;;;;;;;;;;;;;
2022/11/10 08:20:42;;;;;;;2.92;1.73;;;;;;;;;;5072745;28;20032;-58
2022/11/10 08:29:02;;;;;;;;;;;;;;;;;;5028352;28;20094;-58
2022/11/10 08:31:29;;;;;;;5.47;2.38;;;;;;;;;;5108863;28;19920;-57
2022/11/10 08:37:28;;;;;;;4.60;2.63;;;;;;;;;;5109017;28;20066;-58
2022/11/10 08:40:00;;;;;;;7.40;2.97;;;;;;;;;;5109156;28;20016;-58
2022/11/10 08:42:57;;;;;;;5.90;2.88;;;;;;;;;;5090530;28;20420;-58
2022/11/10 08:48:33;;;;;;;5.70;3.67;;;;;;;;;;5067267;28;20039;-58
2022/11/10 08:51:25;;;;;;;;;;;;;;;;;;;;;
2022/11/10 08:54:32;;;;;;;7.30;2.28;;;;;;;;;;5108543;28;20067;-58
2022/11/10 08:57:01;;;;;;;6.15;2.10;;;;;;;;;;5046914;28;20068;-58
2022/11/10 08:59:47;;;;;;;2.97;2.03;;;;;;;;;;5037074;28;20188;-57
2022/11/10 09:02:49;;;;;;;8.43;3.17;;;;;;;;;;5014817;28;20079;-59
2022/11/10 09:08:16;;;;;;;3.90;2.97;;;;;;;;;;5022309;28;20034;-57
2022/11/10 09:11:05;;;;;;;5.13;2.63;;;;;;;;;;5032391;28;20036;-57
2022/11/10 09:13:49;;;;;;;3.85;2.38;;;;;;;;;;5022293;28;20378;-58
2022/11/10 09:19:54;;;;;;;;;;;;;;;;;;;;;
2022/11/10 09:22:31;;;;;;;;;;;;;;;;;;;;;
2022/11/10 09:25:30;;;;;;;;;;;;;;;;;;;;;
2022/11/10 09:31:24;;;;;;;4.68;2.83;;;;;;;;;;5014156;28;20033;-57
2022/11/10 09:34:05;;;;;;;4.40;1.95;;;;;;;;;;5023909;28;20140;-57
2022/11/10 09:39:38;;;;;;;4.25;2.10;;;;;;;;;;5032002;28;20028;-56
2022/11/10 09:45:36;;;;;;;4.72;1.77;;;;;;;;;;5031548;28;20048;-58
2022/11/10 09:48:42;;;;;;;4.60;2.38;;;;;;;;;;5082182;28;20020;-56
2022/11/10 09:51:11;;;;;;;4.68;2.00;;;;;;;;;;5075585;28;20028;-58
2022/11/10 09:54:12;;;;;;;1.38;0.93;;;;;;;;;;5031112;28;20030;-58
2022/11/10 09:57:00;;;;;;;;;;;;;;;;;;;;;
2022/11/10 10:02:31;;;;;;;1.27;0.73;;;;;;;;;;5018108;28;20533;-58
2022/11/10 10:05:21;;;;;;;2.65;0.85;;;;;;;;;;5046091;28;20041;-58
2022/11/10 10:08:07;;;;;;;3.85;0.93;;;;;;;;;;5045408;28;20030;-58
2022/11/10 10:10:54;;;;;;;2.75;0.80;;;;;;;;;;5045934;28;20030;-58
2022/11/10 10:13:56;;;;;;;3.83;0.98;;;;;;;;;;5033274;28;20040;-58
2022/11/10 10:19:38;;;;;;;6.15;1.13;;;;;;;;;;5048985;28;20055;-58
2022/11/10 10:22:30;;;;;;;7.43;0.95;;;;;;;;;;5049334;28;20044;-58
2022/11/10 10:25:16;;;;;;;1.77;0.60;;;;;;;;;;5085291;28;20060;-58
2022/11/10 10:27:59;;;;;;;3.75;1.15;;;;;;;;;;5093031;28;20051;-58
2022/11/10 10:30:48;;;;;;;4.18;0.57;;;;;;;;;;5107849;28;20028;-58
2022/11/10 10:33:19;;;;;;;0.75;0.38;;;;;;;;;;5093464;28;20024;-57
2022/11/10 10:36:11;;;;;;;1.25;0.77;;;;;;;;;;5110432;28;20089;-58
2022/11/10 10:38:51;;;;;;;5.45;1.25;;;;;;;;;;5111918;28;20047;-58
2022/11/10 10:44:22;;;;;;;3.97;1.38;;;;;;;;;;5111209;28;20023;-58
2022/11/10 10:46:58;;;;;;;1.85;0.65;;;;;;;;;;5111285;28;20107;-58
2022/11/10 10:49:49;;;;;;;3.40;0.80;;;;;;;;;;5111334;28;20488;-58
2022/11/10 10:52:42;;;;;;;4.95;1.70;;;;;;;;;;5110657;28;20020;-58
2022/11/10 10:55:15;;;;;;;1.95;0.68;;;;;;;;;;5008975;28;20070;-58
2022/11/10 10:57:55;;;;;;;2.35;0.68;;;;;;;;;;5101916;28;20036;-58
2022/11/10 11:00:56;;;;;;;3.63;0.85;;;;;;;;;;5111397;28;20335;-58
2022/11/10 11:03:46;;;;;;;1.50;0.57;;;;;;;;;;5110312;28;20474;-58
2022/11/10 11:09:33;;;;;;;2.63;0.77;;;;;;;;;;5108194;28;20053;-58
2022/11/10 11:12:34;;;;;;;3.28;0.60;;;;;;;;;;5108953;28;20031;-58
2022/11/10 11:15:25;;;;;;;3.88;0.95;;;;;;;;;;5057153;28;20052;-58
2022/11/10 11:18:03;;;;;;;;;;;;;;;;;;5111026;28;20104;-58
2022/11/10 11:23:52;;;;;;;0.88;0.38;;;;;;;;;;5109054;28;20068;-58
2022/11/10 11:29:51;;;;;;;4.22;0.85;;;;;;;;;;5027445;28;20041;-58
2022/11/10 11:32:41;;;;;;;1.33;0.50;;;;;;;;;;5028176;28;20063;-57
2022/11/10 11:35:33;;;;;;;3.50;0.82;;;;;;;;;;5027618;28;20032;-58
2022/11/10 11:38:20;;;;;;;2.70;0.98;;;;;;;;;;5066426;28;20052;-57
2022/11/10 11:41:23;;;;;;;2.80;0.63;;;;;;;;;;5089477;28;20044;-58
2022/11/10 11:44:15;;;;;;;0.63;0.30;;;;;;;;;;5019813;28;20059;-59
2022/11/10 11:47:02;;;;;;;2.28;0.60;;;;;;;;;;5089350;28;20035;-58
2022/11/10 11:49:51;;;;;;;1.45;0.40;;;;;;;;;;5089222;28;20024;-58
2022/11/10 11:52:37;;;;;;;1.92;0.80;;;;;;;;;;5088432;28;20031;-58
2022/11/10 11:55:30;;;;;;;2.22;1.00;;;;;;;;;;5071542;28;20045;-57
2022/11/10 12:01:12;;;;;;;4.45;0.55;;;;;;;;;;5089217;28;20031;-58
2022/11/10 12:03:53;;;;;;;1.55;0.85;;;;;;;;;;5086841;28;20028;-58
2022/11/10 12:09:42;;;;;;;4.93;0.57;;;;;;;;;;5088810;28;20031;-58
2022/11/10 12:12:29;;;;;;;2.47;0.93;;;;;;;;;;5071303;28;20040;-58
2022/11/10 12:15:15;;;;;;;2.15;0.52;;;;;;;;;;5088498;28;20118;-58
2022/11/10 12:18:03;;;;;;;1.88;0.65;;;;;;;;;;5070927;28;20032;-58
2022/11/10 12:21:14;;;;;;;3.05;0.95;;;;;;;;;;5087623;28;20067;-58
2022/11/10 12:27:15;;;;;;;1.50;0.95;;;;;;;;;;5065005;28;20075;-58
2022/11/10 12:30:00;;;;;;;1.70;0.60;;;;;;;;;;5088276;28;20016;-58
2022/11/10 12:32:47;;;;;;;1.85;0.85;;;;;;;;;;5088086;28;20024;-58
2022/11/10 12:35:36;;;;;;;0.82;0.50;;;;;;;;;;5086940;28;20029;-58
2022/11/10 12:42:04;;;;;;;4.28;1.00;;;;;;;;;;5027600;28;20050;-58
2022/11/10 12:44:33;;;;;;;;;;;;;;;;;;5027459;28;20045;-58
2022/11/10 12:47:21;;;;;;;4.65;1.05;;;;;;;;;;5026446;28;20310;-58
2022/11/10 12:53:31;;;;;;;2.72;0.68;;;;;;;;;;4967480;29;20055;-58
2022/11/10 12:56:13;;;;;;;8.20;0.80;;;;;;;;;;4968538;29;20043;-59
2022/11/10 13:02:07;;;;;;;2.25;0.90;;;;;;;;;;5007700;28;20040;-58
2022/11/10 13:04:34;;;;;;;2.88;0.80;;;;;;;;;;5048431;28;20036;-58
2022/11/10 13:10:33;;;;;;;1.40;0.60;;;;;;;;;;5047140;28;20136;-58
2022/11/10 13:13:36;;;;;;;1.85;0.73;;;;;;;;;;5027482;28;20040;-59
2022/11/10 13:16:06;;;;;;;2.95;0.70;;;;;;;;;;5045803;28;20113;-60
2022/11/10 13:22:04;;;;;;;1.77;0.85;;;;;;;;;;5003697;28;20537;-59
2022/11/10 13:30:43;;;;;;;2.70;0.60;;;;;;;;;;5063750;28;20039;-58
2022/11/10 13:36:50;;;;;;;1.77;0.75;;;;;;;;;;5066620;28;20469;-59
2022/11/10 13:45:36;;;;;;;2.22;0.50;;;;;;;;;;5091196;28;20062;-58
2022/11/10 13:48:50;;;;;;;4.15;0.60;;;;;;;;;;5093682;28;20028;-59
2022/11/10 13:51:44;;;;;;;1.23;0.52;;;;;;;;;;5097554;28;20020;-58
2022/11/10 13:54:46;;;;;;;2.95;0.77;;;;;;;;;;5098078;28;20028;-59
2022/11/10 13:57:27;;;;;;;2.80;0.73;;;;;;;;;;5098789;28;20111;-58
2022/11/10 14:03:15;;;;;;;0.82;0.47;;;;;;;;;;5112512;28;20043;-59
2022/11/10 14:06:17;;;;;;;4.43;0.50;;;;;;;;;;5112686;28;20032;-59
2022/11/10 14:11:56;;;;;;;2.08;0.90;;;;;;;;;;5112414;28;20044;-59
2022/11/10 14:14:50;;;;;;;2.17;0.90;;;;;;;;;;5060084;28;20091;-58
2022/11/10 14:17:43;;;;;;;5.10;0.60;;;;;;;;;;5111934;28;20044;-59
2022/11/10 14:20:28;;;;;;;2.17;0.70;;;;;;;;;;5092216;28;20038;-59
2022/11/10 14:23:05;;;;;;;3.55;0.77;;;;;;;;;;5111998;28;20050;-59
2022/11/10 14:28:45;;;;;;;2.10;0.50;;;;;;;;;;5111756;28;20047;-59
2022/11/10 14:31:23;;;;;;;3.17;1.08;;;;;;;;;;5108539;28;20051;-58
2022/11/10 14:34:26;;;;;;;;;;;;;;;;;;;;;
2022/11/10 14:37:08;;;;;;;5.28;1.90;;;;;;;;;;5049719;28;20073;-59
2022/11/10 14:40:01;;;;;;;0.85;0.43;;;;;;;;;;5047801;28;20056;-59
2022/11/10 14:42:42;;;;;;;2.20;0.70;;;;;;;;;;5049305;28;20108;-59
2022/11/10 14:45:28;;;;;;;1.73;0.70;;;;;;;;;;5050001;28;20093;-59
2022/11/10 14:48:15;;;;;;;1.70;0.65;;;;;;;;;;5049373;28;20317;-58
2022/11/10 14:50:44;;;;;;;1.50;0.30;;;;;;;;;;5047244;28;20049;-58
2022/11/10 14:53:32;;;;;;;1.42;0.63;;;;;;;;;;5047990;28;20030;-57
2022/11/10 14:56:21;;;;;;;1.10;0.60;;;;;;;;;;5110593;28;20120;-58
2022/11/10 14:59:15;;;;;;;1.90;1.40;;;;;;;;;;5075558;28;20035;-58
2022/11/10 15:02:19;;;;;;;4.13;0.70;;;;;;;;;;5110752;28;20020;-58
2022/11/10 15:05:06;;;;;;;0.98;0.43;;;;;;;;;;5089618;28;20036;-58
2022/11/10 15:07:56;;;;;;;2.15;0.93;;;;;;;;;;5092645;28;20039;-58
2022/11/10 15:11:00;;;;;;;1.42;0.60;;;;;;;;;;5106205;28;20043;-58
2022/11/10 15:17:27;;;;;;;4.65;1.33;;;;;;;;;;4945114;29;20394;-58
2022/11/10 15:20:05;;;;;;;4.05;1.00;;;;;;;;;;4962526;28;20038;-58
2022/11/10 15:23:07;;;;;;;1.95;0.90;;;;;;;;;;5003665;28;20027;-60
2022/11/10 15:25:48;;;;;;;1.65;0.90;;;;;;;;;;4996249;28;20140;-59
2022/11/10 15:31:49;;;;;;;1.33;0.65;;;;;;;;;;4996739;28;20061;-58
2022/11/10 15:34:34;;;;;;;5.57;1.30;;;;;;;;;;4997033;28;20078;-60
2022/11/10 15:37:22;;;;;;;2.15;1.48;;;;;;;;;;4982276;28;20138;-59
2022/11/10 15:40:20;;;;;;;2.47;1.17;;;;;;;;;;5001967;28;20114;-60
2022/11/10 15:43:13;;;;;;;3.63;0.65;;;;;;;;;;5040450;28;20037;-59
2022/11/10 15:46:16;;;;;;;1.67;0.95;;;;;;;;;;5100600;28;20062;-58
2022/11/10 15:52:18;;;;;;;3.42;0.80;;;;;;;;;;5032466;28;20069;-57
2022/11/10 15:55:01;;;;;;;1.40;0.85;;;;;;;;;;5032834;28;20073;-61
2022/11/10 15:57:42;;;;;;;0.88;0.50;;;;;;;;;;5015028;28;20129;-60
2022/11/10 16:00:10;;;;;;;;;;;;;;;;;;5033414;28;20392;-59
2022/11/10 16:02:44;;;;;;;2.05;0.77;;;;;;;;;;5032710;28;19905;-59
2022/11/10 16:05:19;;;;;;;1.77;0.70;;;;;;;;;;5033225;28;20036;-58
2022/11/10 16:07:46;;;;;;;4.65;1.15;;;;;;;;;;5032868;28;20091;-58
2022/11/10 16:10:18;;;;;;;1.83;0.80;;;;;;;;;;5032085;28;20052;-59
2022/11/10 16:12:56;;;;;;;4.50;0.57;;;;;;;;;;5040064;28;20028;-59
2022/11/10 16:15:53;;;;;;;2.38;0.80;;;;;;;;;;5076433;28;20028;-58
2022/11/10 16:24:22;;;;;;;2.30;0.90;;;;;;;;;;5094282;28;20097;-58
2022/11/10 16:26:55;;;;;;;1.55;0.85;;;;;;;;;;5082201;28;20044;-60
2022/11/10 16:29:27;;;;;;;0.52;0.38;;;;;;;;;;5074653;28;20082;-58
2022/11/10 16:32:09;;;;;;;2.70;0.75;;;;;;;;;;5073817;28;20107;-60
2022/11/10 16:37:57;;;;;;;2.88;1.48;;;;;;;;;;5074043;28;20054;-58
2022/11/10 16:41:05;;;;;;;3.10;1.10;;;;;;;;;;5056570;28;20119;-59
2022/11/10 16:43:40;;;;;;;1.98;1.23;;;;;;;;;;5073877;28;20024;-59
2022/11/10 16:46:37;;;;;;;3.78;1.00;;;;;;;;;;5073165;28;20036;-59
2022/11/10 16:49:26;;;;;;;2.15;1.38;;;;;;;;;;5054281;28;20390;-58
2022/11/10 16:52:17;;;;;;;;;;;;;;;;;;;;;
2022/11/10 16:55:17;;;;;;;3.05;1.38;;;;;;;;;;5069102;28;20036;-58
2022/11/10 16:58:02;;;;;;;;;;;;;;;;;;;;;
2022/11/10 17:00:58;;;;;;;2.75;1.38;;;;;;;;;;5012238;28;20046;-59
2022/11/10 17:03:58;;;;;;;3.63;1.20;;;;;;;;;;4952837;29;20035;-59
2022/11/10 17:06:29;;;;;;;2.00;1.20;;;;;;;;;;4994815;28;20150;-58
2022/11/10 17:09:20;;;;;;;3.08;1.85;;;;;;;;;;5011331;28;20034;-57
2022/11/10 17:12:12;;;;;;;2.78;1.13;;;;;;;;;;4994387;28;20033;-58
2022/11/10 17:17:50;;;;;;;2.13;0.90;;;;;;;;;;5003406;28;20040;-58
2022/11/10 17:26:15;;;;;;;6.68;1.73;;;;;;;;;;5010233;28;20062;-58
2022/11/10 17:28:47;;;;;;;6.40;1.98;;;;;;;;;;5015627;28;20034;-57
2022/11/10 17:31:22;;;;;;;4.13;1.77;;;;;;;;;;5015585;28;20030;-58
2022/11/10 17:34:22;;;;;;;4.03;2.25;;;;;;;;;;5013456;28;20492;-58
2022/11/10 17:40:04;;;;;;;5.45;1.77;;;;;;;;;;4952711;28;20034;-58
2022/11/10 17:42:47;;;;;;;5.50;1.70;;;;;;;;;;4999684;28;20165;-58
2022/11/10 17:45:50;;;;;;;6.20;3.15;;;;;;;;;;5015924;28;20403;-58
2022/11/10 17:48:25;;;;;;;5.53;3.10;;;;;;;;;;4998541;28;20077;-58
2022/11/10 17:51:17;;;;;;;6.57;2.83;;;;;;;;;;5016056;28;20102;-58
2022/11/10 17:54:22;;;;;;;4.28;2.00;;;;;;;;;;4986069;28;20076;-58
2022/11/10 17:59:48;;;;;;;4.80;2.80;;;;;;;;;;4975447;28;20023;-58
2022/11/10 18:02:58;;;;;;;7.93;2.17;;;;;;;;;;5049502;28;20028;-58
2022/11/10 18:08:39;;;;;;;4.75;2.25;;;;;;;;;;5063208;28;20028;-59
2022/11/10 18:11:35;;;;;;;5.50;2.22;;;;;;;;;;5076956;28;20469;-57
2022/11/10 18:14:32;;;;;;;2.83;1.73;;;;;;;;;;5015121;28;20037;-57
2022/11/10 18:17:17;;;;;;;8.50;2.17;;;;;;;;;;4991238;28;20430;-58
2022/11/10 18:20:03;;;;;;;;;;;;;;;;;;;;;
2022/11/10 18:22:36;;;;;;;3.67;2.58;;;;;;;;;;5015135;28;20448;-57
2022/11/10 18:25:26;;;;;;;3.85;1.17;;;;;;;;;;5015059;28;20078;-58
2022/11/10 18:28:19;;;;;;;3.47;1.35;;;;;;;;;;5015395;28;20523;-58
2022/11/10 18:31:11;;;;;;;4.43;2.20;;;;;;;;;;5014635;28;20388;-58
2022/11/10 18:34:07;;;;;;;2.72;1.58;;;;;;;;;;5014476;28;20420;-58
2022/11/10 18:36:47;;;;;;;3.53;1.77;;;;;;;;;;5001392;28;20466;-58
2022/11/10 18:42:33;;;;;;;2.95;1.58;;;;;;;;;;5002011;28;20056;-59
2022/11/10 18:51:18;;;;;;;3.95;2.03;;;;;;;;;;4975038;28;20037;-58
2022/11/10 18:54:00;;;;;;;3.47;2.10;;;;;;;;;;5064578;28;20036;-59
2022/11/10 18:56:30;;;;;;;3.53;2.80;;;;;;;;;;5054095;28;20490;-58
2022/11/10 19:05:04;;;;;;;3.17;2.28;;;;;;;;;;5064394;28;20120;-57
2022/11/10 19:11:25;;;;;;;6.20;2.38;;;;;;;;;;4974534;28;20034;-58
2022/11/10 19:14:01;;;;;;;5.22;2.75;;;;;;;;;;4978939;28;20089;-58
2022/11/10 19:19:51;;;;;;;4.32;2.50;;;;;;;;;;4955324;29;20035;-58
2022/11/10 19:26:01;;;;;;;4.65;2.63;;;;;;;;;;4954998;28;20117;-58
2022/11/10 19:28:52;;;;;;;3.22;2.05;;;;;;;;;;5011378;28;20045;-58
2022/11/10 19:31:37;;;;;;;;;;;;;;;;;;;;;
2022/11/10 19:34:23;;;;;;;3.33;1.95;;;;;;;;;;5009474;28;20025;-58
2022/11/10 19:37:04;;;;;;;2.63;2.00;;;;;;;;;;5013451;28;20105;-58
2022/11/10 19:39:46;;;;;;;;;;;;;;;;;;;;;
2022/11/10 19:42:32;;;;;;;4.53;2.58;;;;;;;;;;5013710;28;19912;-58
2022/11/10 19:45:07;;;;;;;5.57;2.90;;;;;;;;;;4986427;28;20030;-58
2022/11/10 19:47:58;;;;;;;2.97;2.10;;;;;;;;;;5025698;28;20546;-58
2022/11/10 19:50:52;;;;;;;4.47;3.15;;;;;;;;;;5035594;28;20544;-58
2022/11/10 19:53:34;;;;;;;5.90;3.75;;;;;;;;;;5052733;28;20052;-59
2022/11/10 19:56:30;;;;;;;6.28;4.25;;;;;;;;;;5053125;28;20037;-59
2022/11/10 19:58:58;;;;;;;6.57;4.00;;;;;;;;;;5051564;28;20542;-59
2022/11/10 20:05:40;;;;;;;6.68;4.45;;;;;;;;;;5042088;28;20504;-58
2022/11/10 20:08:11;;;;;;;8.77;6.43;;;;;;;;;;5049907;28;20086;-59
2022/11/10 20:10:58;;;;;;;10.95;5.05;;;;;;;;;;5035739;28;20083;-59
2022/11/10 20:14:33;;;;;;;;;;;;;;;;;;;;;
2022/11/10 20:16:55;;;;;;;7.15;5.03;;;;;;;;;;5046339;28;20064;-59
2022/11/10 20:22:45;;;;;;;;;;;;;;;;;;;;;
2022/11/10 20:25:26;;;;;;;12.57;6.45;;;;;;;;;;5053612;28;20096;-58
2022/11/10 20:28:05;;;;;;;7.13;6.07;;;;;;;;;;5074652;28;20083;-59
2022/11/10 20:31:02;;;;;;;11.57;7.78;;;;;;;;;;5077021;28;20024;-60
2022/11/10 20:33:39;;;;;;;10.43;9.32;;;;;;;;;;5095649;28;20072;-56
2022/11/10 20:40:00;;;;;;;8.68;7.78;;;;;;;;;;5050540;28;20070;-57
2022/11/10 20:42:37;;;;;;;17.92;8.60;;;;;;;;;;5094382;28;20043;-57
2022/11/10 20:45:19;;;;;;;9.02;7.50;;;;;;;;;;5094659;28;20081;-57
2022/11/10 20:48:15;;;;;;;7.00;6.25;;;;;;;;;;5093835;28;20039;-57
2022/11/10 20:50:53;;;;;;;10.52;5.93;;;;;;;;;;5070428;28;20059;-58
2022/11/10 20:56:24;;;;;;;8.07;5.63;;;;;;;;;;5055282;28;20409;-58
2022/11/10 20:59:07;;;;;;;5.63;4.53;;;;;;;;;;5057457;28;20025;-58
2022/11/10 21:01:51;;;;;;;6.90;4.97;;;;;;;;;;5055984;28;20474;-58
2022/11/10 21:04:53;;;;;;;6.63;5.03;;;;;;;;;;5012376;28;20044;-58
2022/11/10 21:07:46;;;;;;;6.57;4.90;;;;;;;;;;5012343;28;20034;-58
2022/11/10 21:10:28;;;;;;;;;;;;;;;;;;;;;
2022/11/10 21:13:00;;;;;;;10.30;5.55;;;;;;;;;;4997398;28;20363;-58
2022/11/10 21:15:49;;;;;;;6.95;5.85;;;;;;;;;;5011420;28;20029;-58
2022/11/10 21:22:19;;;;;;;13.50;8.95;;;;;;;;;;5020401;28;20513;-58
2022/11/10 21:25:06;;;;;;;6.20;4.55;;;;;;;;;;5031773;28;20435;-57
2022/11/10 21:31:05;;;;;;;;;;;;;;;;;;;;;
2022/11/10 21:33:53;;;;;;;5.80;4.60;;;;;;;;;;5031676;28;20021;-58
2022/11/10 21:36:32;;;;;;;6.57;5.03;;;;;;;;;;5088779;28;20393;-58
2022/11/10 21:39:41;;;;;;;8.30;5.18;;;;;;;;;;5094748;28;20035;-58
2022/11/10 21:42:43;;;;;;;7.50;5.70;;;;;;;;;;5090641;28;20114;-58
2022/11/10 21:45:38;;;;;;;6.38;4.60;;;;;;;;;;5075977;28;20032;-58
2022/11/10 21:48:07;;;;;;;12.07;6.03;;;;;;;;;;5074997;28;20537;-57
2022/11/10 21:51:24;;;;;;;8.77;6.63;;;;;;;;;;5075981;28;20492;-58
2022/11/10 21:54:16;;;;;;;9.10;5.20;;;;;;;;;;4992440;28;20407;-57
2022/11/10 21:56:55;;;;;;;10.80;7.53;;;;;;;;;;4940019;28;20054;-58
2022/11/10 21:59:37;;;;;;;7.72;5.43;;;;;;;;;;5075967;28;20055;-58
2022/11/10 22:02:14;;;;;;;8.20;6.25;;;;;;;;;;5087141;28;20034;-58
2022/11/10 22:08:29;;;;;;;7.43;5.22;;;;;;;;;;5039537;28;20127;-57
2022/11/10 22:19:48;;;;;;;9.18;5.40;;;;;;;;;;5111200;28;20046;-57
2022/11/10 22:22:33;;;;;;;6.63;5.18;;;;;;;;;;5091965;28;20034;-57
2022/11/10 22:25:36;;;;;;;8.05;5.25;;;;;;;;;;5110511;28;20028;-56
2022/11/10 22:28:24;;;;;;;6.28;5.32;;;;;;;;;;5090640;28;20043;-57
2022/11/10 22:31:02;;;;;;;9.73;5.03;;;;;;;;;;5071171;28;20444;-55
2022/11/10 22:34:05;;;;;;;10.55;4.95;;;;;;;;;;5072013;28;20063;-56
2022/11/10 22:36:51;;;;;;;;;;;;;;;;;;;;;
2022/11/10 22:45:19;;;;;;;9.63;5.78;;;;;;;;;;5090094;28;20409;-55